Lokaal brand risico:
CBI


Regionaal brand risico: Meer informatie


Weerstation
Sluispark-LeuvenLeuven-Sluispark



Het weer levert geen direct gevaar op.    Er zijn geen waarschuwingen afgegeven.

Nabijgelegen vliegvelden - METAR rapporten

   
EBBR - Wilsele bij Leuven
Gewijzigd: 19-10-2018 14:20
Licht bewolkt    Wind: ONO 5.6 km/h
Licht bewolkt
Wind: Wind: ONO 5.6 km/h
Temperatuur: 15°C
Dauwpunt: 9°C
Vochtigheid: 68%
Barometer: 1024 hPa
Bewolking: Licht bewolkt
Zicht: meer dan 10 km
Bewolking: Licht bewolkt 518.2 m
EBBR 191220Z 06003KT 030V140 9999 FEW017 15/09 Q1024 NOSIG
EBAW - Antwerp
Gewijzigd: 19-10-2018 14:20
Licht bewolkt    Wind: varieert 1.9 km/h
Licht bewolkt
Wind: Wind: varieert 1.9 km/h
Temperatuur: 16°C
Dauwpunt: 10°C
Vochtigheid: 68%
Barometer: 1025 hPa
Bewolking: Licht bewolkt
Zicht: meer dan 10 km
Bewolking: Licht bewolkt 731.5 m
EBAW 191220Z VRB01KT 9999 FEW024 16/10 Q1025 NOSIG
EBLG - Li├Ęge
Gewijzigd: 19-10-2018 14:20
Licht bewolkt    Wind: NNO 13 km/h
Licht bewolkt
Wind: Wind: NNO 13 km/h
Temperatuur: 15°C
Dauwpunt: 10°C
Vochtigheid: 72%
Barometer: 1024 hPa
Bewolking: Licht bewolkt
Zicht: meer dan 10 km
Bewolking: Licht bewolkt 762 m
EBLG 191220Z 02007KT 340V060 9999 FEW025 15/10 Q1024 NOSIG
EBCV - Mons/Bergen
Gewijzigd: 19-10-2018 14:25
Gedeeltelijk bewolkt    Wind: Noorden 11.1 km/h
Gedeeltelijk bewolkt
Wind: Wind: Noorden 11.1 km/h
Temperatuur: 15°C
Dauwpunt: 10°C
Vochtigheid: 72%
Barometer: 1024 hPa
Bewolking: Gedeeltelijk bewolkt
Zicht: 8 km
Bewolking: Gedeeltelijk bewolkt 579.1 m
EBCV 191225Z AUTO 01006KT 8000 SCT019/// 15/10 Q1024 WHT
EHBK - Maastricht
Gewijzigd: 19-10-2018 14:25
Licht bewolkt    Wind: ONO 11.1 km/h
Licht bewolkt
Wind: Wind: ONO 11.1 km/h
Temperatuur: 16°C
Dauwpunt: 10°C
Vochtigheid: 68%
Barometer: 1024 hPa
Bewolking: Licht bewolkt
Zicht: meer dan 10 km
Bewolking: Licht bewolkt 579.1 m
EHBK 191225Z AUTO 07006KT 030V100 9999 FEW019 16/10 Q1024 NOSIG
ELLX - Luxemburg
Gewijzigd: 19-10-2018 14:20
Helder    Wind: ONO 13 km/h
Helder
Wind: Wind: ONO 13 km/h
Temperatuur: 16°C
Dauwpunt: 10°C
Vochtigheid: 68%
Barometer: 1023 hPa
Zicht: meer dan 10 km
Bewolking: Helder
ELLX 191220Z 06007KT 010V080 CAVOK 16/10 Q1023 NOSIG
EBOS - Oostende
Gewijzigd: 19-10-2018 14:20
Licht bewolkt    Wind: NNO 14.8 km/h
Licht bewolkt
Wind: Wind: NNO 14.8 km/h
Temperatuur: 15°C
Dauwpunt: 10°C
Vochtigheid: 72%
Barometer: 1025 hPa
Bewolking: Licht bewolkt
Zicht: meer dan 10 km
Bewolking: Licht bewolkt 609.6 m
EBOS 191220Z 02008KT 9999 FEW020 15/10 Q1025 NOSIG
  

Script ontwikkeld door  Saratoga-weather.org Aangepast voor de template door  Weerstation Leuven

U vindt ons ook hier:

UK Metoffice

WeatherCloud

European Weather Network

Weather Underground

Benelux Weather Network

AWEKAS

WeatherlinkIP

Het Weer Aktueel

Apparatuur in gebruik:

Weer-station
Davis VP2 weatherstation

Weer-programma
Meteobridge

Weer-computer
D-Link DIR-505

Webleverancier
Robohost

Davis VP2 weatherstation

Meteobridge

D-Link DIR-505

Robohost